createdAt,value
2023-01-19T00:00:28.960Z,90.28
2023-01-19T00:02:00.847Z,90.10
2023-01-19T00:03:32.558Z,89.85
2023-01-19T00:05:07.556Z,90.23
2023-01-19T00:06:39.531Z,89.83
2023-01-19T00:08:17.854Z,89.86
2023-01-19T00:09:50.277Z,90.08
2023-01-19T00:11:22.451Z,90.16
2023-01-19T00:12:54.408Z,90.29
2023-01-19T00:14:26.285Z,90.17
2023-01-19T00:15:58.267Z,89.95
2023-01-19T00:17:30.380Z,90.74
2023-01-19T00:19:02.255Z,90.49
2023-01-19T00:20:35.683Z,90.02
2023-01-19T00:22:07.777Z,89.97
2023-01-19T00:23:39.595Z,90.34
2023-01-19T00:25:11.375Z,89.74
2023-01-19T00:26:43.097Z,89.77
2023-01-19T00:28:17.413Z,89.32
2023-01-19T00:29:49.103Z,90.09
2023-01-19T00:31:21.654Z,89.92
2023-01-19T00:32:53.598Z,90.81
2023-01-19T00:34:25.238Z,90.14
2023-01-19T00:35:56.898Z,90.39
2023-01-19T00:37:28.720Z,90.60
2023-01-19T00:39:01.013Z,91.12
2023-01-19T00:40:32.698Z,91.41
2023-01-19T00:42:22.876Z,91.46
2023-01-19T00:43:54.558Z,90.97
2023-01-19T00:45:26.406Z,91.51
2023-01-19T00:46:58.139Z,91.26
2023-01-19T00:48:30.730Z,91.34
2023-01-19T00:50:02.979Z,91.02
2023-01-19T00:51:34.765Z,90.94
2023-01-19T00:53:07.003Z,91.10
2023-01-19T00:54:38.687Z,90.62
2023-01-19T00:56:10.285Z,91.00
2023-01-19T00:57:43.001Z,91.67
2023-01-19T00:59:15.038Z,91.77
2023-01-19T01:00:47.026Z,91.89
2023-01-19T01:02:18.909Z,91.52
2023-01-19T01:03:50.692Z,90.65
2023-01-19T01:05:22.839Z,90.22
2023-01-19T01:06:54.651Z,90.43
2023-01-19T01:08:26.449Z,90.50
2023-01-19T01:09:58.103Z,90.46
2023-01-19T01:11:29.783Z,90.19
2023-01-19T01:13:20.288Z,90.48
2023-01-19T01:14:53.032Z,90.53
2023-01-19T01:16:25.135Z,91.38
2023-01-19T01:17:56.907Z,91.63
2023-01-19T01:19:28.586Z,90.00
2023-01-19T01:21:02.030Z,90.57
2023-01-19T01:22:33.677Z,90.87
2023-01-19T01:24:05.680Z,89.91
2023-01-19T01:25:38.658Z,90.87
2023-01-19T01:27:10.618Z,90.71
2023-01-19T01:28:42.304Z,91.78
2023-01-19T01:30:15.461Z,90.77
2023-01-19T01:31:47.317Z,91.16
2023-01-19T01:33:40.543Z,91.44
2023-01-19T01:35:12.228Z,90.69
2023-01-19T01:36:44.344Z,91.18
2023-01-19T01:38:17.192Z,91.61
2023-01-19T01:39:48.840Z,90.87
2023-01-19T01:41:21.172Z,89.65
2023-01-19T01:42:56.946Z,89.58
2023-01-19T01:44:55.993Z,89.75
2023-01-19T01:46:30.659Z,89.92
2023-01-19T01:48:09.271Z,90.34
2023-01-19T01:49:41.549Z,91.28
2023-01-19T01:51:24.407Z,90.06
2023-01-19T01:53:06.357Z,89.59
2023-01-19T01:54:39.805Z,91.05
2023-01-19T01:56:19.707Z,89.50
2023-01-19T01:57:57.672Z,90.57
2023-01-19T01:59:39.433Z,90.93
2023-01-19T02:01:30.367Z,90.42
2023-01-19T02:03:03.000Z,90.89
2023-01-19T02:04:35.194Z,89.58
2023-01-19T02:06:07.730Z,90.15
2023-01-19T02:08:07.366Z,90.34
2023-01-19T02:09:57.684Z,89.94
2023-01-19T02:11:49.279Z,90.00
2023-01-19T02:13:21.419Z,90.71
2023-01-19T02:14:53.059Z,90.89
2023-01-19T02:16:24.782Z,90.98
2023-01-19T02:17:58.616Z,91.07
2023-01-19T02:19:48.610Z,90.29
2023-01-19T02:21:26.239Z,90.48
2023-01-19T02:23:03.150Z,90.45
2023-01-19T02:24:35.840Z,90.51
2023-01-19T02:26:09.774Z,90.09
2023-01-19T02:27:42.759Z,90.50
2023-01-19T02:29:20.490Z,90.04
2023-01-19T02:30:52.224Z,90.06
2023-01-19T02:32:23.929Z,90.52
2023-01-19T02:33:56.723Z,90.03
2023-01-19T02:35:28.376Z,90.25
2023-01-19T02:37:06.641Z,90.31
2023-01-19T02:38:41.018Z,90.37
2023-01-19T02:40:16.836Z,90.99
2023-01-19T02:41:53.272Z,89.66
2023-01-19T02:43:26.220Z,89.96
2023-01-19T02:44:58.161Z,90.22
2023-01-19T02:46:29.891Z,89.91
2023-01-19T02:48:01.733Z,89.20
2023-01-19T02:49:33.446Z,89.47
2023-01-19T02:51:14.256Z,89.62
2023-01-19T02:52:46.113Z,89.33
2023-01-19T02:54:26.314Z,89.26
2023-01-19T02:56:06.847Z,89.66
2023-01-19T02:58:04.742Z,89.09
2023-01-19T02:59:48.079Z,90.03
2023-01-19T03:01:31.074Z,90.35
2023-01-19T03:03:09.171Z,90.77
2023-01-19T03:04:47.550Z,90.04
2023-01-19T03:07:04.250Z,89.50
2023-01-19T03:08:46.991Z,90.00
2023-01-19T03:10:27.350Z,90.36
2023-01-19T03:12:10.047Z,90.66
2023-01-19T03:13:41.805Z,89.94
2023-01-19T03:15:27.542Z,89.72
2023-01-19T03:17:02.825Z,89.76
2023-01-19T03:18:37.268Z,89.45
2023-01-19T03:20:10.211Z,89.22
2023-01-19T03:21:47.388Z,90.71
2023-01-19T03:23:22.560Z,90.44
2023-01-19T03:24:59.643Z,90.46
2023-01-19T03:26:36.341Z,90.79
2023-01-19T03:28:08.096Z,90.54
2023-01-19T03:29:43.120Z,91.21
2023-01-19T03:31:22.745Z,91.36
2023-01-19T03:33:03.400Z,90.41
2023-01-19T03:34:37.235Z,90.62
2023-01-19T03:36:15.045Z,89.71
2023-01-19T03:37:49.021Z,89.79
2023-01-19T03:39:25.812Z,90.73
2023-01-19T03:41:02.356Z,89.89
2023-01-19T03:42:35.908Z,89.58
2023-01-19T03:44:08.751Z,90.08
2023-01-19T03:45:40.814Z,90.14
2023-01-19T03:47:14.626Z,90.16
2023-01-19T03:48:47.075Z,90.70
2023-01-19T03:50:25.817Z,90.20
2023-01-19T03:51:58.989Z,89.99
2023-01-19T03:53:30.897Z,91.00
2023-01-19T03:55:05.005Z,90.41
2023-01-19T03:56:36.857Z,89.46
2023-01-19T03:58:08.751Z,89.65
2023-01-19T03:59:40.384Z,89.51
2023-01-19T04:01:12.681Z,89.98
2023-01-19T04:02:44.604Z,90.04
2023-01-19T04:04:16.434Z,89.18
2023-01-19T04:05:48.148Z,89.49
2023-01-19T04:07:19.720Z,90.28
2023-01-19T04:08:52.047Z,90.50
2023-01-19T04:10:24.363Z,90.61
2023-01-19T04:11:57.205Z,90.65
2023-01-19T04:13:30.126Z,90.75
2023-01-19T04:15:01.720Z,90.73
2023-01-19T04:16:33.397Z,91.35
2023-01-19T04:18:05.359Z,90.28
2023-01-19T04:19:37.281Z,90.44
2023-01-19T04:21:09.301Z,90.36
2023-01-19T04:22:40.970Z,90.52
2023-01-19T04:24:12.668Z,90.16
2023-01-19T04:25:44.313Z,90.17
2023-01-19T04:27:16.454Z,90.98
2023-01-19T04:28:48.070Z,90.03
2023-01-19T04:30:20.205Z,90.12
2023-01-19T04:31:51.832Z,90.48
2023-01-19T04:33:24.267Z,89.58
2023-01-19T04:34:56.033Z,89.54
2023-01-19T04:36:28.378Z,89.33
2023-01-19T04:38:00.256Z,89.90
2023-01-19T04:39:31.831Z,89.84
2023-01-19T04:41:03.467Z,90.31
2023-01-19T04:42:35.125Z,89.35
2023-01-19T04:44:06.831Z,89.57
2023-01-19T04:45:38.608Z,89.84
2023-01-19T04:47:10.372Z,89.43
2023-01-19T04:48:42.336Z,88.94
2023-01-19T04:50:15.254Z,89.67
2023-01-19T04:51:47.282Z,89.11
2023-01-19T04:53:18.914Z,88.84
2023-01-19T04:54:50.549Z,88.67
2023-01-19T04:56:22.327Z,89.36
2023-01-19T04:57:54.337Z,89.51
2023-01-19T04:59:25.940Z,89.05
2023-01-19T05:00:57.648Z,89.21
2023-01-19T05:02:29.383Z,89.55
2023-01-19T05:04:02.090Z,89.42
2023-01-19T05:05:34.217Z,89.66
2023-01-19T05:07:05.943Z,89.43
2023-01-19T05:08:37.821Z,87.72
2023-01-19T05:10:10.144Z,88.89
2023-01-19T05:11:41.835Z,88.44
2023-01-19T05:13:14.161Z,89.02
2023-01-19T05:14:46.001Z,89.75
2023-01-19T05:16:17.728Z,88.82
2023-01-19T05:17:49.449Z,88.63
2023-01-19T05:19:21.241Z,90.12
2023-01-19T05:20:52.886Z,89.77
2023-01-19T05:22:24.593Z,90.02
2023-01-19T05:23:56.292Z,89.85
2023-01-19T05:25:27.990Z,89.87
2023-01-19T05:26:59.647Z,89.60
2023-01-19T05:28:33.002Z,89.82
2023-01-19T05:30:06.061Z,88.46
2023-01-19T05:31:37.938Z,87.94
2023-01-19T05:33:09.568Z,88.96
2023-01-19T05:34:41.324Z,88.68
2023-01-19T05:36:12.945Z,89.11
2023-01-19T05:37:44.622Z,88.87
2023-01-19T05:39:16.493Z,89.08
2023-01-19T05:40:48.761Z,89.43
2023-01-19T05:42:20.687Z,89.74
2023-01-19T05:43:52.265Z,89.65
2023-01-19T05:45:23.901Z,89.65
2023-01-19T05:46:55.651Z,89.80
2023-01-19T05:48:27.439Z,89.50
2023-01-19T05:49:59.191Z,89.13
2023-01-19T05:51:37.968Z,89.45
2023-01-19T05:53:09.656Z,90.36
2023-01-19T05:54:41.326Z,89.16
2023-01-19T05:56:13.038Z,89.83
2023-01-19T05:57:44.693Z,89.44
2023-01-19T05:59:21.504Z,89.79
2023-01-19T06:00:53.125Z,89.99
2023-01-19T06:02:28.702Z,89.46
2023-01-19T06:04:00.767Z,89.63
2023-01-19T06:05:32.819Z,90.01
2023-01-19T06:07:06.296Z,90.07
2023-01-19T06:08:37.914Z,89.83
2023-01-19T06:10:10.166Z,89.82
2023-01-19T06:11:41.939Z,90.17
2023-01-19T06:13:13.586Z,89.99
2023-01-19T06:14:45.228Z,90.26
2023-01-19T06:16:16.873Z,90.59
2023-01-19T06:17:48.524Z,90.46
2023-01-19T06:19:20.215Z,89.87
2023-01-19T06:20:58.405Z,90.34
2023-01-19T06:22:30.093Z,90.33
2023-01-19T06:24:01.685Z,90.88
2023-01-19T06:25:33.352Z,91.19
2023-01-19T06:27:06.568Z,90.49
2023-01-19T06:28:38.311Z,90.64
2023-01-19T06:30:10.651Z,90.84
2023-01-19T06:31:42.695Z,89.71
2023-01-19T06:33:14.398Z,89.85
2023-01-19T06:34:46.812Z,90.10
2023-01-19T06:36:18.581Z,89.94
2023-01-19T06:37:52.901Z,90.32
2023-01-19T06:39:24.604Z,89.78
2023-01-19T06:41:03.236Z,90.09
2023-01-19T06:42:34.964Z,90.75
2023-01-19T06:44:06.577Z,89.63
2023-01-19T06:45:39.270Z,89.90
2023-01-19T06:47:14.992Z,90.18
2023-01-19T06:48:48.140Z,89.77
2023-01-19T06:50:19.816Z,89.92
2023-01-19T06:51:52.640Z,90.51
2023-01-19T06:53:24.364Z,90.64
2023-01-19T06:54:56.642Z,91.05
2023-01-19T06:56:28.575Z,91.05
2023-01-19T06:58:00.839Z,90.46
2023-01-19T06:59:32.555Z,90.23
2023-01-19T07:01:05.882Z,90.02
2023-01-19T07:02:42.515Z,90.42
2023-01-19T07:04:15.243Z,90.19
2023-01-19T07:05:47.079Z,89.63
2023-01-19T07:07:18.746Z,90.40
2023-01-19T07:08:50.444Z,89.92
2023-01-19T07:10:23.297Z,90.56
2023-01-19T07:11:55.251Z,90.68
2023-01-19T07:13:27.205Z,90.92
2023-01-19T07:14:59.075Z,90.56
2023-01-19T07:16:31.282Z,90.28
2023-01-19T07:18:07.636Z,89.63
2023-01-19T07:19:39.225Z,89.45
2023-01-19T07:21:10.890Z,90.38
2023-01-19T07:22:46.689Z,90.17
2023-01-19T07:24:18.386Z,89.92
2023-01-19T07:25:50.047Z,89.64
2023-01-19T07:27:21.703Z,90.25
2023-01-19T07:28:53.628Z,90.13
2023-01-19T07:30:25.868Z,90.78
2023-01-19T07:31:57.867Z,90.88
2023-01-19T07:33:29.857Z,90.23
2023-01-19T07:35:01.676Z,89.98
2023-01-19T07:36:33.609Z,89.35
2023-01-19T07:38:05.191Z,89.49
2023-01-19T07:39:36.972Z,89.17
2023-01-19T07:41:10.790Z,89.86
2023-01-19T07:42:50.331Z,90.17
2023-01-19T07:44:22.405Z,89.42
2023-01-19T07:45:58.738Z,89.13
2023-01-19T07:47:30.364Z,89.37
2023-01-19T07:49:02.139Z,89.33
2023-01-19T07:50:33.978Z,88.70
2023-01-19T07:52:06.123Z,89.33
2023-01-19T07:53:38.440Z,89.24
2023-01-19T07:55:10.351Z,89.23
2023-01-19T07:56:41.984Z,89.73
2023-01-19T07:58:13.719Z,88.88
2023-01-19T07:59:45.345Z,88.34
2023-01-19T08:01:17.052Z,88.01
2023-01-19T08:02:51.891Z,88.44
2023-01-19T08:04:23.905Z,88.82
2023-01-19T08:05:57.098Z,88.41
2023-01-19T08:07:28.742Z,87.67
2023-01-19T08:09:00.613Z,88.58
2023-01-19T08:10:33.099Z,88.91
2023-01-19T08:12:05.092Z,88.41
2023-01-19T08:13:36.966Z,87.64
2023-01-19T08:15:10.387Z,88.31
2023-01-19T08:16:42.127Z,88.29
2023-01-19T08:18:15.698Z,87.65
2023-01-19T08:19:47.411Z,87.40
2023-01-19T08:21:19.179Z,87.67
2023-01-19T08:22:51.355Z,87.30
2023-01-19T08:24:25.787Z,86.83
2023-01-19T08:25:57.526Z,87.52
2023-01-19T08:27:30.127Z,87.40
2023-01-19T08:29:04.966Z,87.01
2023-01-19T08:30:37.393Z,86.40
2023-01-19T08:32:09.584Z,86.07
2023-01-19T08:33:42.964Z,85.92
2023-01-19T08:35:15.745Z,85.89
2023-01-19T08:36:47.809Z,86.22
2023-01-19T08:38:19.781Z,85.75
2023-01-19T08:39:53.619Z,85.06
2023-01-19T08:41:25.281Z,84.73
2023-01-19T08:43:03.727Z,85.32
2023-01-19T08:44:36.632Z,84.53
2023-01-19T08:46:11.586Z,83.94
2023-01-19T08:47:43.359Z,84.71
2023-01-19T08:49:15.881Z,83.96
2023-01-19T08:50:49.003Z,84.06
2023-01-19T08:52:21.228Z,84.63
2023-01-19T08:53:52.910Z,84.76
2023-01-19T08:55:25.653Z,84.04
2023-01-19T08:56:57.420Z,83.69
2023-01-19T08:58:29.564Z,83.77
2023-01-19T09:00:01.549Z,83.82
2023-01-19T09:01:33.521Z,82.87
2023-01-19T09:03:07.244Z,82.55
2023-01-19T09:04:39.052Z,81.43
2023-01-19T09:06:13.293Z,81.53
2023-01-19T09:07:48.060Z,81.94
2023-01-19T09:09:19.765Z,80.37
2023-01-19T09:10:51.732Z,80.99
2023-01-19T09:12:23.447Z,79.59
2023-01-19T09:13:55.150Z,80.97
2023-01-19T09:15:26.910Z,81.89
2023-01-19T09:16:59.264Z,82.53
2023-01-19T09:18:31.283Z,81.46
2023-01-19T09:20:04.504Z,80.43
2023-01-19T09:21:36.134Z,79.88
2023-01-19T09:23:11.754Z,79.27
2023-01-19T09:24:43.433Z,78.53
2023-01-19T09:26:15.172Z,78.13
2023-01-19T09:27:46.851Z,77.06
2023-01-19T09:29:18.590Z,76.09
2023-01-19T09:30:50.315Z,75.52
2023-01-19T09:32:22.944Z,75.24
2023-01-19T09:33:54.563Z,76.15
2023-01-19T09:35:26.285Z,75.95
2023-01-19T09:36:58.164Z,76.53
2023-01-19T09:38:32.915Z,76.32
2023-01-19T09:40:06.257Z,74.54
2023-01-19T09:41:42.039Z,74.28
2023-01-19T09:43:35.315Z,72.49
2023-01-19T09:45:27.320Z,71.54
2023-01-19T09:47:03.109Z,71.65
2023-01-19T09:48:45.842Z,69.76
2023-01-19T09:50:27.716Z,71.03
2023-01-19T09:51:59.479Z,70.38
2023-01-19T09:53:40.432Z,68.26
2023-01-19T09:55:21.591Z,69.58
2023-01-19T09:56:54.081Z,70.22
2023-01-19T09:58:26.060Z,71.58
2023-01-19T10:00:00.724Z,71.61
2023-01-19T10:02:08.001Z,72.31
2023-01-19T10:03:41.483Z,73.20
2023-01-19T10:05:25.263Z,71.38
2023-01-19T10:07:15.041Z,71.92
2023-01-19T10:08:52.493Z,71.52
2023-01-19T10:10:27.132Z,72.23
2023-01-19T10:12:08.723Z,72.75
2023-01-19T10:13:49.854Z,72.35
2023-01-19T10:15:47.899Z,72.55
2023-01-19T10:17:38.666Z,72.83
2023-01-19T10:19:33.731Z,73.61
2023-01-19T10:21:10.602Z,73.15
2023-01-19T10:22:44.450Z,73.08
2023-01-19T10:24:28.333Z,73.17
2023-01-19T10:26:03.310Z,72.68
2023-01-19T10:27:37.833Z,73.53
2023-01-19T10:29:40.850Z,73.55
2023-01-19T10:31:14.015Z,73.55
2023-01-19T10:32:45.767Z,72.25
2023-01-19T10:34:23.393Z,72.61
2023-01-19T10:35:55.638Z,70.89
2023-01-19T10:37:40.701Z,70.29
2023-01-19T10:39:17.028Z,69.56
2023-01-19T10:40:57.414Z,70.35
2023-01-19T10:42:30.932Z,70.49
2023-01-19T10:44:05.511Z,70.69
2023-01-19T10:45:37.895Z,71.39
2023-01-19T10:47:17.289Z,71.18
2023-01-19T10:48:51.784Z,71.03
2023-01-19T10:50:32.565Z,72.28
2023-01-19T10:52:07.713Z,71.75
2023-01-19T10:53:42.737Z,70.48
2023-01-19T10:55:26.293Z,70.38
2023-01-19T10:57:07.507Z,69.53
2023-01-19T10:58:40.565Z,70.97
2023-01-19T11:00:40.245Z,70.54
2023-01-19T11:02:18.757Z,71.18
2023-01-19T11:03:53.365Z,70.98
2023-01-19T11:05:27.863Z,70.30
2023-01-19T11:07:25.748Z,70.05
2023-01-19T11:09:15.318Z,69.88
2023-01-19T11:10:56.132Z,68.83
2023-01-19T11:12:27.884Z,69.80
2023-01-19T11:14:07.360Z,69.16
2023-01-19T11:15:59.198Z,68.73
2023-01-19T11:17:30.837Z,69.06
2023-01-19T11:19:03.566Z,68.51
2023-01-19T11:20:55.509Z,67.49
2023-01-19T11:22:33.819Z,67.30
2023-01-19T11:24:10.700Z,68.82
2023-01-19T11:25:46.475Z,68.56
2023-01-19T11:27:21.062Z,67.26
2023-01-19T11:28:56.011Z,67.99
2023-01-19T11:30:28.042Z,68.58
2023-01-19T11:32:19.196Z,68.06
2023-01-19T11:33:54.240Z,66.91
2023-01-19T11:35:32.123Z,67.51
2023-01-19T11:37:23.512Z,67.30
2023-01-19T11:39:01.443Z,67.55
2023-01-19T11:40:34.951Z,67.23
2023-01-19T11:42:11.235Z,67.86
2023-01-19T11:43:49.013Z,67.44
2023-01-19T11:45:22.514Z,67.03
2023-01-19T11:46:58.794Z,65.36
2023-01-19T11:48:39.647Z,56.81
2023-01-19T11:50:14.473Z,43.46
2023-01-19T11:51:56.636Z,42.03
2023-01-19T11:53:34.026Z,47.22
2023-01-19T11:55:17.750Z,52.37
2023-01-19T11:56:52.055Z,56.27
2023-01-19T11:58:25.809Z,57.99
2023-01-19T12:00:03.468Z,58.14
2023-01-19T12:01:52.297Z,59.88
2023-01-19T12:03:30.590Z,60.93
2023-01-19T12:05:11.228Z,61.13
2023-01-19T12:06:50.011Z,60.91
2023-01-19T12:08:30.762Z,62.17
2023-01-19T12:10:20.741Z,62.66
2023-01-19T12:12:00.526Z,63.28
2023-01-19T12:13:33.690Z,62.50
2023-01-19T12:15:09.130Z,63.80
2023-01-19T12:16:43.171Z,64.92
2023-01-19T12:18:43.848Z,64.53
2023-01-19T12:20:24.497Z,64.57
2023-01-19T12:21:56.542Z,64.01
2023-01-19T12:23:31.169Z,65.28
2023-01-19T12:25:20.726Z,65.07
2023-01-19T12:27:01.918Z,65.92
2023-01-19T12:28:38.813Z,65.15
2023-01-19T12:30:30.790Z,65.29
2023-01-19T12:32:14.217Z,65.42
2023-01-19T12:33:46.390Z,65.48
2023-01-19T12:35:56.401Z,65.67
2023-01-19T12:37:28.996Z,65.53
2023-01-19T12:39:17.028Z,66.05
2023-01-19T12:40:48.759Z,66.56
2023-01-19T12:42:21.487Z,65.82
2023-01-19T12:44:12.006Z,66.59
2023-01-19T12:45:45.869Z,66.10
2023-01-19T12:47:24.446Z,66.16
2023-01-19T12:49:10.223Z,65.89
2023-01-19T12:50:46.523Z,65.83
2023-01-19T12:52:27.125Z,66.05
2023-01-19T12:54:02.223Z,65.21
2023-01-19T12:55:37.717Z,65.89
2023-01-19T12:57:29.439Z,66.25
2023-01-19T12:59:01.594Z,65.91
2023-01-19T13:00:42.816Z,66.11
2023-01-19T13:02:20.168Z,66.33
2023-01-19T13:04:03.734Z,65.64
2023-01-19T13:05:38.559Z,65.37
2023-01-19T13:07:16.805Z,65.47
2023-01-19T13:09:00.960Z,65.50
2023-01-19T13:11:00.773Z,65.30
2023-01-19T13:12:32.578Z,65.39
2023-01-19T13:14:04.116Z,65.13
2023-01-19T13:15:36.307Z,65.49
2023-01-19T13:17:28.510Z,65.52
2023-01-19T13:19:06.566Z,65.98
2023-01-19T13:20:50.543Z,66.47
2023-01-19T13:22:49.978Z,67.64
2023-01-19T13:24:23.507Z,68.58
2023-01-19T13:26:02.920Z,67.42
2023-01-19T13:27:35.319Z,68.23
2023-01-19T13:29:13.709Z,68.25
2023-01-19T13:31:05.161Z,68.37
2023-01-19T13:32:40.328Z,68.44
2023-01-19T13:34:14.737Z,69.32
2023-01-19T13:35:53.574Z,69.29
2023-01-19T13:37:38.938Z,69.09
2023-01-19T13:39:34.223Z,69.61
2023-01-19T13:41:05.787Z,70.10
2023-01-19T13:42:40.320Z,69.51
2023-01-19T13:44:26.204Z,70.67
2023-01-19T13:45:59.157Z,70.37
2023-01-19T13:47:45.704Z,71.19
2023-01-19T13:49:22.753Z,71.36
2023-01-19T13:51:04.130Z,71.88
2023-01-19T13:52:35.780Z,72.16
2023-01-19T13:54:18.003Z,71.73
2023-01-19T13:56:17.187Z,71.84
2023-01-19T13:57:50.279Z,72.19
2023-01-19T13:59:21.952Z,72.00
2023-01-19T14:00:53.529Z,71.86
2023-01-19T14:02:25.294Z,72.28
2023-01-19T14:03:57.129Z,72.34
2023-01-19T14:05:36.990Z,72.48
2023-01-19T14:07:22.560Z,72.16
2023-01-19T14:09:26.708Z,72.80
2023-01-19T14:11:00.144Z,73.19
2023-01-19T14:12:32.378Z,73.60
2023-01-19T14:14:04.060Z,73.93
2023-01-19T14:15:35.692Z,74.64
2023-01-19T14:17:28.685Z,74.89
2023-01-19T14:19:04.746Z,73.86
2023-01-19T14:20:37.203Z,74.07
2023-01-19T14:22:08.825Z,74.25
2023-01-19T14:24:08.343Z,74.27
2023-01-19T14:25:44.866Z,74.02
2023-01-19T14:27:20.113Z,74.87
2023-01-19T14:28:51.735Z,74.86
2023-01-19T14:30:26.073Z,74.23
2023-01-19T14:32:00.845Z,73.95
2023-01-19T14:33:52.704Z,74.86
2023-01-19T14:35:25.088Z,74.72
2023-01-19T14:36:57.074Z,74.26
2023-01-19T14:38:28.751Z,74.44
2023-01-19T14:40:13.211Z,75.44
2023-01-19T14:41:52.353Z,74.83
2023-01-19T14:43:28.517Z,74.46
2023-01-19T14:45:01.366Z,74.71
2023-01-19T14:46:33.142Z,74.06
2023-01-19T14:48:06.633Z,73.79
2023-01-19T14:49:41.544Z,73.35
2023-01-19T14:51:18.528Z,73.85
2023-01-19T14:52:56.037Z,74.33
2023-01-19T14:54:40.595Z,74.47
2023-01-19T14:56:12.287Z,75.57
2023-01-19T14:57:44.142Z,75.35
2023-01-19T14:59:15.817Z,75.05
2023-01-19T15:00:49.341Z,75.08
2023-01-19T15:02:21.565Z,74.61
2023-01-19T15:03:53.259Z,75.01
2023-01-19T15:05:25.003Z,75.18
2023-01-19T15:06:56.762Z,74.93
2023-01-19T15:08:34.250Z,75.04
2023-01-19T15:10:16.021Z,74.66
2023-01-19T15:11:50.185Z,74.71
2023-01-19T15:13:23.916Z,74.97
2023-01-19T15:14:56.119Z,75.61
2023-01-19T15:16:29.945Z,75.88
2023-01-19T15:18:04.117Z,75.62
2023-01-19T15:19:35.732Z,75.24
2023-01-19T15:21:14.204Z,74.83
2023-01-19T15:22:46.147Z,74.85
2023-01-19T15:24:18.188Z,76.01
2023-01-19T15:25:50.681Z,75.99
2023-01-19T15:27:23.376Z,76.09
2023-01-19T15:28:56.570Z,75.88
2023-01-19T15:30:33.480Z,76.21
2023-01-19T15:32:05.557Z,75.90
2023-01-19T15:33:37.327Z,76.59
2023-01-19T15:35:17.948Z,76.15
2023-01-19T15:36:49.655Z,74.95
2023-01-19T15:38:21.439Z,76.13
2023-01-19T15:39:53.117Z,76.03
2023-01-19T15:41:32.246Z,76.06
2023-01-19T15:43:04.077Z,75.74
2023-01-19T15:44:35.732Z,74.69
2023-01-19T15:46:07.673Z,76.04
2023-01-19T15:47:39.584Z,76.68
2023-01-19T15:49:11.225Z,76.44
2023-01-19T15:50:44.881Z,75.98
2023-01-19T15:52:17.196Z,76.54
2023-01-19T15:53:49.726Z,76.52
2023-01-19T15:55:21.442Z,76.38
2023-01-19T15:56:53.162Z,77.37
2023-01-19T15:58:25.185Z,77.55
2023-01-19T15:59:56.827Z,77.79
2023-01-19T16:01:32.336Z,77.62
2023-01-19T16:03:04.406Z,77.16
2023-01-19T16:04:36.116Z,77.33
2023-01-19T16:06:08.283Z,77.60
2023-01-19T16:07:39.978Z,77.45
2023-01-19T16:09:16.759Z,77.89
2023-01-19T16:10:48.350Z,77.38
2023-01-19T16:12:20.038Z,77.42
2023-01-19T16:13:51.909Z,77.45
2023-01-19T16:15:23.712Z,76.96
2023-01-19T16:16:55.454Z,76.23
2023-01-19T16:18:27.172Z,76.85
2023-01-19T16:19:58.835Z,76.91
2023-01-19T16:21:30.516Z,76.10
2023-01-19T16:23:14.467Z,77.57
2023-01-19T16:24:46.956Z,77.53
2023-01-19T16:26:30.618Z,78.28
2023-01-19T16:28:02.285Z,77.83
2023-01-19T16:29:33.901Z,78.91
2023-01-19T16:31:05.668Z,78.78
2023-01-19T16:32:38.408Z,78.30
2023-01-19T16:34:10.426Z,77.91
2023-01-19T16:35:42.045Z,77.86
2023-01-19T16:37:13.724Z,78.36
2023-01-19T16:38:45.339Z,78.80
2023-01-19T16:40:17.300Z,78.69
2023-01-19T16:41:48.944Z,78.38
2023-01-19T16:43:20.594Z,78.25
2023-01-19T16:44:52.348Z,78.22
2023-01-19T16:46:38.883Z,78.51
2023-01-19T16:48:10.696Z,79.17
2023-01-19T16:49:42.334Z,78.36
2023-01-19T16:51:14.005Z,78.61
2023-01-19T16:52:46.334Z,78.51
2023-01-19T16:54:21.059Z,78.57
2023-01-19T16:55:53.208Z,77.88
2023-01-19T16:57:24.931Z,77.80
2023-01-19T16:58:58.725Z,78.71
2023-01-19T17:00:30.393Z,78.26
2023-01-19T17:02:02.626Z,78.63
2023-01-19T17:03:34.786Z,78.42
2023-01-19T17:05:07.268Z,77.82
2023-01-19T17:06:39.395Z,77.37
2023-01-19T17:08:11.026Z,77.87
2023-01-19T17:09:42.718Z,78.69
2023-01-19T17:11:22.647Z,79.24
2023-01-19T17:12:54.330Z,78.62
2023-01-19T17:14:26.158Z,79.07
2023-01-19T17:16:01.885Z,79.83
2023-01-19T17:17:36.215Z,79.56
2023-01-19T17:19:08.985Z,78.89
2023-01-19T17:20:40.668Z,79.19
2023-01-19T17:22:13.469Z,79.76
2023-01-19T17:23:47.467Z,79.93
2023-01-19T17:25:19.293Z,79.67
2023-01-19T17:26:50.925Z,79.05
2023-01-19T17:28:23.518Z,80.06
2023-01-19T17:29:55.276Z,79.58
2023-01-19T17:31:27.232Z,79.80
2023-01-19T17:32:58.959Z,79.63
2023-01-19T17:34:30.640Z,78.63
2023-01-19T17:36:08.114Z,78.51
2023-01-19T17:37:39.946Z,79.04
2023-01-19T17:39:14.887Z,79.60
2023-01-19T17:40:46.692Z,79.29
2023-01-19T17:42:18.434Z,79.75
2023-01-19T17:43:51.191Z,80.09
2023-01-19T17:45:22.998Z,79.98
2023-01-19T17:46:54.684Z,80.07
2023-01-19T17:48:26.339Z,80.11
2023-01-19T17:49:58.013Z,80.46
2023-01-19T17:51:30.908Z,79.56
2023-01-19T17:53:02.750Z,79.87
2023-01-19T17:54:34.505Z,79.48
2023-01-19T17:56:14.862Z,79.25
2023-01-19T17:57:46.517Z,79.20
2023-01-19T17:59:18.232Z,79.22
2023-01-19T18:00:49.981Z,80.13
2023-01-19T18:02:24.405Z,80.50
2023-01-19T18:03:56.789Z,80.62
2023-01-19T18:05:28.487Z,80.42
2023-01-19T18:07:00.202Z,79.69
2023-01-19T18:08:32.856Z,80.05
2023-01-19T18:10:06.462Z,80.15
2023-01-19T18:11:38.255Z,80.85
2023-01-19T18:13:09.975Z,80.60
2023-01-19T18:14:41.795Z,80.30
2023-01-19T18:16:16.831Z,80.82
2023-01-19T18:17:48.530Z,80.96
2023-01-19T18:19:22.237Z,80.88
2023-01-19T18:20:57.284Z,80.39
2023-01-19T18:22:28.976Z,80.61
2023-01-19T18:24:02.941Z,81.15
2023-01-19T18:25:34.629Z,80.81
2023-01-19T18:27:06.289Z,80.79
2023-01-19T18:28:38.166Z,80.93
2023-01-19T18:30:10.662Z,80.54
2023-01-19T18:31:42.936Z,80.61
2023-01-19T18:33:14.575Z,81.19
2023-01-19T18:34:46.267Z,81.28
2023-01-19T18:36:18.437Z,80.86
2023-01-19T18:37:50.578Z,79.80
2023-01-19T18:39:22.327Z,79.99
2023-01-19T18:41:02.671Z,80.86
2023-01-19T18:42:34.415Z,81.13
2023-01-19T18:44:06.183Z,81.27
2023-01-19T18:45:39.853Z,81.59
2023-01-19T18:47:11.485Z,81.52
2023-01-19T18:48:43.292Z,81.73
2023-01-19T18:50:19.477Z,81.75
2023-01-19T18:51:51.079Z,82.02
2023-01-19T18:53:23.580Z,81.83
2023-01-19T18:54:55.215Z,81.58
2023-01-19T18:56:27.346Z,81.40
2023-01-19T18:57:59.182Z,81.39
2023-01-19T18:59:31.050Z,82.39
2023-01-19T19:01:02.879Z,81.71
2023-01-19T19:02:34.601Z,81.48
2023-01-19T19:04:08.136Z,81.58
2023-01-19T19:05:40.117Z,81.64
2023-01-19T19:07:11.783Z,81.87
2023-01-19T19:08:44.211Z,82.23
2023-01-19T19:10:16.248Z,82.19
2023-01-19T19:11:47.957Z,81.76
2023-01-19T19:13:21.866Z,82.56
2023-01-19T19:14:53.531Z,82.65
2023-01-19T19:16:25.731Z,81.96
2023-01-19T19:17:57.424Z,82.43
2023-01-19T19:19:29.348Z,82.11
2023-01-19T19:21:08.831Z,81.77
2023-01-19T19:22:40.864Z,81.84
2023-01-19T19:24:13.478Z,81.76
2023-01-19T19:25:45.154Z,82.55
2023-01-19T19:27:17.805Z,82.35
2023-01-19T19:28:49.457Z,81.94
2023-01-19T19:30:21.331Z,81.88
2023-01-19T19:31:52.979Z,81.17
2023-01-19T19:33:24.903Z,80.95
2023-01-19T19:34:58.972Z,81.04
2023-01-19T19:36:31.830Z,80.79
2023-01-19T19:38:03.636Z,81.64
2023-01-19T19:39:36.038Z,82.24
2023-01-19T19:41:09.571Z,82.24
2023-01-19T19:42:41.253Z,82.34
2023-01-19T19:44:13.137Z,82.28
2023-01-19T19:45:44.886Z,83.31
2023-01-19T19:47:16.639Z,83.18
2023-01-19T19:48:49.047Z,83.81
2023-01-19T19:50:20.728Z,84.01
2023-01-19T19:51:52.500Z,83.76
2023-01-19T19:53:24.174Z,83.92
2023-01-19T19:54:56.138Z,83.71
2023-01-19T19:56:30.903Z,83.83
2023-01-19T19:58:02.597Z,83.75
2023-01-19T19:59:34.273Z,83.93
2023-01-19T20:01:21.018Z,84.24
2023-01-19T20:02:52.694Z,84.37
2023-01-19T20:04:25.443Z,83.92
2023-01-19T20:06:06.463Z,84.20
2023-01-19T20:07:39.174Z,84.56
2023-01-19T20:09:15.691Z,84.87
2023-01-19T20:10:47.511Z,84.04
2023-01-19T20:12:19.197Z,84.53
2023-01-19T20:13:51.043Z,84.57
2023-01-19T20:15:22.693Z,84.96
2023-01-19T20:16:54.577Z,84.34
2023-01-19T20:18:26.308Z,84.60
2023-01-19T20:19:59.196Z,84.44
2023-01-19T20:21:34.173Z,83.31
2023-01-19T20:23:06.588Z,83.27